Terminal Aerodrome Forecast
Issued by NWS Jacksonville, FL

Home | Current Version | Previous Version | Text Only | Print | Product List | Glossary On
Versions: 1 2 3 4 5 6 7 8 9 10 11 12 13 14 15 16 17 18 19 20 21 22 23 24 25 26 27 28 29 30
683
FTUS42 KJAX 230847 AAD
TAFGNV
TAF AMD
KGNV 230847Z 2309/2406 24003KT 3SM SHRA VCTS BKN025CB BKN100
      TEMPO 2309/2312 VRB09G17KT 1SM TSRA BKN008 OVC015CB
     FM231200 22005KT P6SM VCTS BKN030CB BKN100
      TEMPO 2316/2320 24015G25KT 4SM -TSRA
     FM232300 21005KT P6SM VCSH SCT030 BKN250=

USA.gov is the U.S. government's official web portal to all federal, state and local government web resources and services.